Terminal Aerodrome Forecast
Issued by NWS Jackson, MS

Home | Current Version | Previous Version | Text Only | Print | Product List | Glossary On
Versions: 1 2 3 4 5 6 7 8 9 10 11 12 13 14 15 16 17
093
FTUS44 KMEG 230714 AAA
TAFTUP
TAF AMD
KTUP 230714Z 2307/2406 00000KT 3SM BR FEW010
      TEMPO 2309/2312 1SM BR SCT009
     FM231200 17003KT 2SM BR OVC007
     FM231500 19005KT P6SM OVC012
     FM231800 21007KT P6SM BKN025
     FM232000 21009KT P6SM BKN035=

USA.gov is the U.S. government's official web portal to all federal, state and local government web resources and services.